createdAt,value
2018-06-23T00:01:40.665Z,9.13
2018-06-23T00:04:08.609Z,7.40
2018-06-23T00:06:36.579Z,5.83
2018-06-23T00:09:05.926Z,8.63
2018-06-23T00:11:33.864Z,7.73
2018-06-23T00:14:01.809Z,9.53
2018-06-23T00:16:29.758Z,6.57
2018-06-23T00:18:57.710Z,3.60
2018-06-23T00:21:25.664Z,8.40
2018-06-23T00:23:53.880Z,5.70
2018-06-23T00:26:27.318Z,8.47
2018-06-23T00:28:55.299Z,7.37
2018-06-23T00:31:23.308Z,6.00
2018-06-23T00:33:51.369Z,5.90
2018-06-23T00:36:19.390Z,7.87
2018-06-23T00:38:47.406Z,7.27
2018-06-23T00:41:15.632Z,6.80
2018-06-23T00:43:43.660Z,4.87
2018-06-23T00:46:11.596Z,7.60
2018-06-23T00:48:39.745Z,6.50
2018-06-23T00:51:08.871Z,5.60
2018-06-23T00:53:36.792Z,6.30
2018-06-23T00:56:04.932Z,6.90
2018-06-23T00:58:44.344Z,5.73
2018-06-23T01:01:12.263Z,8.07
2018-06-23T01:03:40.320Z,7.50
2018-06-23T01:06:08.333Z,8.57
2018-06-23T01:08:36.672Z,8.10
2018-06-23T01:11:05.044Z,5.47
2018-06-23T01:13:32.995Z,7.50
2018-06-23T01:16:01.973Z,6.90
2018-06-23T01:18:30.044Z,4.67
2018-06-23T01:20:57.963Z,8.00
2018-06-23T01:23:25.947Z,7.23
2018-06-23T01:25:53.848Z,5.30
2018-06-23T01:28:21.837Z,6.83
2018-06-23T01:30:49.851Z,5.07
2018-06-23T01:33:17.655Z,6.83
2018-06-23T01:35:45.469Z,7.67
2018-06-23T01:38:13.403Z,8.27
2018-06-23T01:40:41.402Z,7.40
2018-06-23T01:43:09.462Z,9.07
2018-06-23T01:45:37.323Z,8.93
2018-06-23T01:48:05.232Z,7.50
2018-06-23T01:50:33.197Z,9.13
2018-06-23T01:53:01.167Z,6.90
2018-06-23T01:55:29.210Z,7.97
2018-06-23T01:57:57.271Z,7.43
2018-06-23T02:00:25.419Z,6.10
2018-06-23T02:02:53.383Z,6.83
2018-06-23T02:05:21.217Z,7.63
2018-06-23T02:07:49.204Z,6.53
2018-06-23T02:10:17.137Z,12.80
2018-06-23T02:12:45.113Z,6.30
2018-06-23T02:15:13.142Z,5.83
2018-06-23T02:17:46.796Z,11.27
2018-06-23T02:20:20.242Z,5.53
2018-06-23T02:22:53.755Z,6.27
2018-06-23T02:25:27.283Z,7.23
2018-06-23T02:28:00.849Z,7.87
2018-06-23T02:30:36.030Z,9.93
2018-06-23T02:33:09.357Z,5.53
2018-06-23T02:35:37.382Z,10.27
2018-06-23T02:38:05.571Z,7.33
2018-06-23T02:40:33.575Z,7.83
2018-06-23T02:43:01.540Z,6.60
2018-06-23T02:45:29.409Z,8.30
2018-06-23T02:47:57.294Z,8.27
2018-06-23T02:50:25.228Z,10.97
2018-06-23T02:52:53.125Z,6.70
2018-06-23T02:55:21.133Z,7.43
2018-06-23T02:57:49.146Z,7.60
2018-06-23T03:00:17.213Z,8.90
2018-06-23T03:02:45.278Z,6.63
2018-06-23T03:05:13.300Z,6.30
2018-06-23T03:07:41.239Z,4.77
2018-06-23T03:10:08.881Z,5.70
2018-06-23T03:12:36.847Z,6.30
2018-06-23T03:15:04.781Z,8.63
2018-06-23T03:17:32.873Z,8.60
2018-06-23T03:20:00.773Z,6.30
2018-06-23T03:22:28.761Z,5.83
2018-06-23T03:24:56.809Z,9.23
2018-06-23T03:27:24.722Z,10.20
2018-06-23T03:29:52.881Z,7.67
2018-06-23T03:32:20.861Z,6.70
2018-06-23T03:34:48.772Z,7.53
2018-06-23T03:37:17.424Z,7.20
2018-06-23T03:39:45.513Z,7.17
2018-06-23T03:42:13.503Z,7.27
2018-06-23T03:44:41.483Z,5.17
2018-06-23T03:47:09.550Z,5.10
2018-06-23T03:49:37.513Z,7.63
2018-06-23T03:52:05.534Z,6.17
2018-06-23T03:54:33.502Z,8.43
2018-06-23T03:57:01.606Z,8.33
2018-06-23T03:59:29.708Z,6.80
2018-06-23T04:01:57.721Z,7.87
2018-06-23T04:04:25.815Z,6.10
2018-06-23T04:06:53.683Z,8.57
2018-06-23T04:09:21.739Z,10.23
2018-06-23T04:11:49.588Z,9.57
2018-06-23T04:14:17.610Z,7.80
2018-06-23T04:16:46.515Z,13.13
2018-06-23T04:19:14.453Z,10.13
2018-06-23T04:21:42.308Z,14.13
2018-06-23T04:24:10.321Z,8.13
2018-06-23T04:26:38.306Z,8.97
2018-06-23T04:29:06.300Z,8.97
2018-06-23T04:31:34.298Z,7.63
2018-06-23T04:34:02.411Z,7.87
2018-06-23T04:36:30.445Z,13.57
2018-06-23T04:38:58.445Z,6.60
2018-06-23T04:41:26.454Z,6.73
2018-06-23T04:43:54.364Z,10.77
2018-06-23T04:46:22.341Z,9.63
2018-06-23T04:48:50.405Z,13.87
2018-06-23T04:51:18.436Z,8.03
2018-06-23T04:53:47.697Z,9.37
2018-06-23T04:56:16.211Z,7.87
2018-06-23T04:58:44.252Z,9.57
2018-06-23T05:01:12.219Z,7.13
2018-06-23T05:03:40.309Z,6.90
2018-06-23T05:06:08.395Z,5.97
2018-06-23T05:08:37.384Z,8.43
2018-06-23T05:11:05.574Z,5.50
2018-06-23T05:13:33.500Z,5.80
2018-06-23T05:16:01.434Z,8.93
2018-06-23T05:18:29.600Z,7.20
2018-06-23T05:20:57.418Z,7.90
2018-06-23T05:23:25.175Z,7.57
2018-06-23T05:25:53.135Z,8.23
2018-06-23T05:28:20.933Z,8.20
2018-06-23T05:30:48.939Z,4.70
2018-06-23T05:33:19.378Z,8.30
2018-06-23T05:35:47.318Z,6.23
2018-06-23T05:38:15.278Z,5.93
2018-06-23T05:40:43.374Z,5.60
2018-06-23T05:43:11.592Z,6.60
2018-06-23T05:45:50.162Z,3.53
2018-06-23T05:48:18.150Z,3.70
2018-06-23T05:50:46.096Z,7.17
2018-06-23T05:53:14.108Z,6.77
2018-06-23T05:55:42.135Z,5.23
2018-06-23T05:58:10.040Z,8.03
2018-06-23T06:00:38.187Z,6.03
2018-06-23T06:03:06.206Z,6.33
2018-06-23T06:05:34.422Z,5.30
2018-06-23T06:08:02.499Z,6.87
2018-06-23T06:10:30.596Z,8.53
2018-06-23T06:12:58.590Z,5.20
2018-06-23T06:15:27.837Z,7.43
2018-06-23T06:17:55.818Z,7.57
2018-06-23T06:20:24.842Z,5.60
2018-06-23T06:22:54.020Z,11.83
2018-06-23T06:25:22.216Z,6.43
2018-06-23T06:27:50.335Z,6.37
2018-06-23T06:30:18.565Z,7.63
2018-06-23T06:32:46.588Z,9.33
2018-06-23T06:35:14.614Z,8.37
2018-06-23T06:37:42.552Z,6.80
2018-06-23T06:40:10.634Z,6.13
2018-06-23T06:42:38.696Z,8.07
2018-06-23T06:45:07.135Z,7.07
2018-06-23T06:47:35.027Z,9.47
2018-06-23T06:50:03.093Z,5.43
2018-06-23T06:52:31.237Z,7.13
2018-06-23T06:54:59.276Z,6.17
2018-06-23T06:57:27.311Z,6.07
2018-06-23T06:59:55.250Z,8.87
2018-06-23T07:02:23.326Z,8.30
2018-06-23T07:04:51.230Z,8.47
2018-06-23T07:07:19.278Z,9.67
2018-06-23T07:09:47.661Z,7.60
2018-06-23T07:12:15.598Z,7.83
2018-06-23T07:14:43.884Z,8.70
2018-06-23T07:17:11.860Z,6.77
2018-06-23T07:19:39.858Z,11.93
2018-06-23T07:22:07.805Z,8.27
2018-06-23T07:24:35.754Z,7.27
2018-06-23T07:27:03.689Z,6.57
2018-06-23T07:29:31.667Z,4.53
2018-06-23T07:31:59.687Z,8.57
2018-06-23T07:34:27.832Z,6.97
2018-06-23T07:36:55.890Z,8.70
2018-06-23T07:39:24.020Z,7.43
2018-06-23T07:41:52.143Z,6.97
2018-06-23T07:44:20.282Z,9.30
2018-06-23T07:46:48.195Z,9.23
2018-06-23T07:49:16.260Z,6.33
2018-06-23T07:51:44.414Z,7.30
2018-06-23T07:54:12.380Z,8.67
2018-06-23T07:56:40.329Z,6.30
2018-06-23T07:59:08.325Z,8.67
2018-06-23T08:01:36.381Z,6.60
2018-06-23T08:04:04.511Z,5.73
2018-06-23T08:06:32.625Z,8.57
2018-06-23T08:09:00.595Z,5.60
2018-06-23T08:11:28.567Z,8.90
2018-06-23T08:13:56.514Z,8.83
2018-06-23T08:16:24.572Z,9.13
2018-06-23T08:18:52.553Z,7.93
2018-06-23T08:21:20.481Z,6.67
2018-06-23T08:23:48.528Z,6.33
2018-06-23T08:26:16.576Z,9.60
2018-06-23T08:28:44.313Z,7.53
2018-06-23T08:31:12.225Z,8.23
2018-06-23T08:33:40.372Z,6.27
2018-06-23T08:36:08.380Z,6.50
2018-06-23T08:38:36.363Z,7.43
2018-06-23T08:41:04.449Z,7.67
2018-06-23T08:43:32.670Z,8.03
2018-06-23T08:46:00.577Z,8.37
2018-06-23T08:48:28.508Z,6.97
2018-06-23T08:50:56.493Z,8.07
2018-06-23T08:53:24.428Z,6.60
2018-06-23T08:55:52.549Z,8.13
2018-06-23T08:58:20.502Z,6.40
2018-06-23T09:00:48.530Z,6.43
2018-06-23T09:03:16.585Z,6.27
2018-06-23T09:05:44.746Z,6.07
2018-06-23T09:08:12.822Z,6.13
2018-06-23T09:10:40.884Z,6.57
2018-06-23T09:13:09.102Z,6.47
2018-06-23T09:15:37.249Z,11.20
2018-06-23T09:18:05.330Z,6.33
2018-06-23T09:20:33.352Z,6.03
2018-06-23T09:23:01.379Z,8.47
2018-06-23T09:25:30.415Z,8.53
2018-06-23T09:27:58.316Z,5.20
2018-06-23T09:30:26.203Z,6.90
2018-06-23T09:32:54.234Z,6.93
2018-06-23T09:35:22.123Z,9.90
2018-06-23T09:37:50.256Z,7.77
2018-06-23T09:40:18.381Z,4.93
2018-06-23T09:42:46.763Z,6.73
2018-06-23T09:45:14.775Z,4.70
2018-06-23T09:47:42.819Z,8.00
2018-06-23T09:50:10.813Z,6.27
2018-06-23T09:52:39.075Z,7.83
2018-06-23T09:55:07.127Z,7.07
2018-06-23T09:57:35.149Z,7.80
2018-06-23T10:00:03.256Z,4.07
2018-06-23T10:02:31.410Z,3.80
2018-06-23T10:04:59.382Z,7.20
2018-06-23T10:07:27.432Z,5.20
2018-06-23T10:09:55.290Z,6.73
2018-06-23T10:12:23.269Z,5.67
2018-06-23T10:14:51.435Z,4.80
2018-06-23T10:17:19.430Z,5.70
2018-06-23T10:19:47.501Z,3.77
2018-06-23T10:22:15.483Z,4.90
2018-06-23T10:24:43.433Z,4.73
2018-06-23T10:27:11.376Z,6.07
2018-06-23T10:29:39.420Z,5.70
2018-06-23T10:32:07.452Z,4.13
2018-06-23T10:34:35.533Z,6.13
2018-06-23T10:37:03.601Z,5.67
2018-06-23T10:39:31.633Z,7.17
2018-06-23T10:41:59.534Z,4.50
2018-06-23T10:44:27.577Z,6.07
2018-06-23T10:46:55.550Z,4.83
2018-06-23T10:49:23.566Z,3.13
2018-06-23T10:51:51.601Z,4.70
2018-06-23T10:54:19.636Z,5.07
2018-06-23T10:56:47.697Z,6.37
2018-06-23T10:59:16.174Z,3.27
2018-06-23T11:01:44.117Z,2.70
2018-06-23T11:04:12.299Z,4.57
2018-06-23T11:06:40.318Z,3.27
2018-06-23T11:09:09.358Z,2.47
2018-06-23T11:11:37.523Z,4.67
2018-06-23T11:14:05.799Z,3.87
2018-06-23T11:16:33.800Z,4.00
2018-06-23T11:19:02.504Z,3.77
2018-06-23T11:21:30.535Z,2.93
2018-06-23T11:23:58.632Z,2.67
2018-06-23T11:26:26.640Z,4.73
2018-06-23T11:28:54.680Z,2.60
2018-06-23T11:31:22.665Z,5.37
2018-06-23T11:33:50.666Z,2.90
2018-06-23T11:36:18.695Z,5.70
2018-06-23T11:38:46.639Z,3.77
2018-06-23T11:41:14.699Z,3.73
2018-06-23T11:43:42.729Z,2.93
2018-06-23T11:46:10.867Z,2.93
2018-06-23T11:48:38.858Z,4.10
2018-06-23T11:51:07.014Z,4.07
2018-06-23T11:53:34.974Z,2.80
2018-06-23T11:56:03.034Z,4.23
2018-06-23T11:58:31.030Z,2.67
2018-06-23T12:00:58.928Z,3.17
2018-06-23T12:03:26.811Z,4.23
2018-06-23T12:05:54.755Z,2.30
2018-06-23T12:08:22.908Z,2.17
2018-06-23T12:10:50.990Z,2.17
2018-06-23T12:13:18.903Z,1.40
2018-06-23T12:15:46.951Z,4.03
2018-06-23T12:18:14.945Z,2.87
2018-06-23T12:20:42.998Z,3.07
2018-06-23T12:23:11.089Z,3.23
2018-06-23T12:25:39.172Z,2.90
2018-06-23T12:28:07.493Z,3.53
2018-06-23T12:30:35.487Z,1.60
2018-06-23T12:33:03.540Z,2.67
2018-06-23T12:35:31.567Z,4.57
2018-06-23T12:37:59.639Z,3.03
2018-06-23T12:40:27.663Z,3.10
2018-06-23T12:42:55.723Z,3.97
2018-06-23T12:45:23.720Z,3.77
2018-06-23T12:47:51.654Z,3.63
2018-06-23T12:50:20.086Z,5.30
2018-06-23T12:52:48.081Z,3.33
2018-06-23T12:55:16.087Z,3.53
2018-06-23T12:57:44.063Z,2.90
2018-06-23T13:00:11.982Z,4.80
2018-06-23T13:02:39.896Z,4.93
2018-06-23T13:05:08.055Z,3.57
2018-06-23T13:07:36.146Z,2.30
2018-06-23T13:10:04.302Z,3.27
2018-06-23T13:12:32.179Z,4.67
2018-06-23T13:15:00.289Z,4.07
2018-06-23T13:17:28.392Z,3.40
2018-06-23T13:19:56.356Z,4.37
2018-06-23T13:22:24.515Z,3.50
2018-06-23T13:24:52.433Z,4.03
2018-06-23T13:27:20.450Z,3.43
2018-06-23T13:29:48.453Z,3.17
2018-06-23T13:32:16.431Z,2.67
2018-06-23T13:34:44.396Z,2.57
2018-06-23T13:37:12.317Z,3.93
2018-06-23T13:39:40.443Z,4.30
2018-06-23T13:42:08.480Z,3.27
2018-06-23T13:44:36.582Z,3.27
2018-06-23T13:47:04.786Z,4.80
2018-06-23T13:49:32.800Z,2.57
2018-06-23T13:52:00.752Z,3.33
2018-06-23T13:54:28.653Z,4.00
2018-06-23T13:56:56.627Z,2.90
2018-06-23T13:59:24.625Z,5.07
2018-06-23T14:01:52.765Z,3.03
2018-06-23T14:04:20.764Z,3.40
2018-06-23T14:06:48.788Z,2.93
2018-06-23T14:09:16.766Z,3.17
2018-06-23T14:11:44.760Z,2.37
2018-06-23T14:14:12.796Z,1.80
2018-06-23T14:16:40.802Z,1.83
2018-06-23T14:19:08.780Z,2.20
2018-06-23T14:21:36.831Z,1.50
2018-06-23T14:24:04.923Z,2.33
2018-06-23T14:26:32.941Z,1.70
2018-06-23T14:29:01.542Z,2.57
2018-06-23T14:31:29.558Z,2.80
2018-06-23T14:33:57.546Z,2.10
2018-06-23T14:36:25.464Z,2.40
2018-06-23T14:38:53.419Z,4.53
2018-06-23T14:41:21.599Z,3.10
2018-06-23T14:43:49.512Z,2.83
2018-06-23T14:46:17.383Z,4.43
2018-06-23T14:48:45.464Z,2.30
2018-06-23T14:51:13.525Z,5.37
2018-06-23T14:53:41.456Z,6.40
2018-06-23T14:56:09.582Z,2.80
2018-06-23T14:58:37.552Z,3.80
2018-06-23T15:01:05.521Z,2.63
2018-06-23T15:03:33.553Z,3.80
2018-06-23T15:06:04.831Z,3.73
2018-06-23T15:08:44.123Z,3.23
2018-06-23T15:11:23.285Z,4.23
2018-06-23T15:13:51.174Z,3.83
2018-06-23T15:16:19.138Z,2.93
2018-06-23T15:18:47.514Z,4.63
2018-06-23T15:21:15.527Z,4.63
2018-06-23T15:23:43.473Z,2.93
2018-06-23T15:26:11.469Z,3.27
2018-06-23T15:28:39.522Z,5.57
2018-06-23T15:31:07.683Z,5.97
2018-06-23T15:33:35.919Z,4.33
2018-06-23T15:36:04.328Z,6.83
2018-06-23T15:38:32.354Z,8.67
2018-06-23T15:41:00.465Z,6.60
2018-06-23T15:43:28.738Z,4.97
2018-06-23T15:45:56.870Z,7.47
2018-06-23T15:48:24.928Z,5.00
2018-06-23T15:50:53.043Z,6.20
2018-06-23T15:53:21.554Z,5.40
2018-06-23T15:55:49.814Z,5.90
2018-06-23T15:58:18.573Z,8.10
2018-06-23T16:00:46.544Z,3.77
2018-06-23T16:03:15.535Z,7.73
2018-06-23T16:05:43.713Z,5.03
2018-06-23T16:08:11.972Z,9.90
2018-06-23T16:10:39.988Z,9.20
2018-06-23T16:13:08.045Z,7.97
2018-06-23T16:15:36.160Z,8.07
2018-06-23T16:18:04.704Z,10.40
2018-06-23T16:20:32.880Z,6.90
2018-06-23T16:23:01.056Z,10.93
2018-06-23T16:25:29.276Z,12.00
2018-06-23T16:27:57.471Z,9.37
2018-06-23T16:30:25.607Z,11.97
2018-06-23T16:32:53.609Z,14.27
2018-06-23T16:35:22.075Z,10.10
2018-06-23T16:37:49.931Z,8.03
2018-06-23T16:40:18.495Z,12.57
2018-06-23T16:42:46.786Z,13.40
2018-06-23T16:45:14.688Z,11.20
2018-06-23T16:47:42.920Z,10.30
2018-06-23T16:50:11.366Z,10.70
2018-06-23T16:52:39.549Z,11.73
2018-06-23T16:55:07.853Z,6.57
2018-06-23T16:57:36.134Z,7.80
2018-06-23T17:00:05.137Z,7.63
2018-06-23T17:02:33.253Z,9.17
2018-06-23T17:05:01.458Z,11.67
2018-06-23T17:07:29.807Z,7.80
2018-06-23T17:09:58.038Z,7.27
2018-06-23T17:12:27.539Z,8.30
2018-06-23T17:14:56.445Z,8.20
2018-06-23T17:17:24.523Z,9.57
2018-06-23T17:19:52.600Z,11.73
2018-06-23T17:22:23.025Z,12.53
2018-06-23T17:24:50.968Z,9.83
2018-06-23T17:27:19.110Z,10.30
2018-06-23T17:29:47.343Z,8.60
2018-06-23T17:32:15.670Z,11.00
2018-06-23T17:34:43.790Z,9.43
2018-06-23T17:37:11.900Z,10.10
2018-06-23T17:39:39.851Z,12.83
2018-06-23T17:42:07.992Z,11.80
2018-06-23T17:44:36.125Z,12.73
2018-06-23T17:47:04.354Z,8.73
2018-06-23T17:49:32.479Z,13.13
2018-06-23T17:52:00.695Z,12.40
2018-06-23T17:54:28.819Z,7.93
2018-06-23T17:56:56.750Z,11.90
2018-06-23T17:59:24.757Z,9.97
2018-06-23T18:01:53.172Z,10.87
2018-06-23T18:04:21.338Z,10.27
2018-06-23T18:06:49.566Z,10.70
2018-06-23T18:09:17.869Z,9.67
2018-06-23T18:11:46.094Z,9.23
2018-06-23T18:14:14.298Z,11.97
2018-06-23T18:16:42.604Z,10.00
2018-06-23T18:19:10.936Z,7.40
2018-06-23T18:21:39.141Z,8.03
2018-06-23T18:24:07.265Z,9.67
2018-06-23T18:26:35.293Z,10.53
2018-06-23T18:29:03.868Z,10.73
2018-06-23T18:31:32.291Z,9.97
2018-06-23T18:34:00.463Z,9.83
2018-06-23T18:36:28.558Z,13.03
2018-06-23T18:38:56.889Z,15.00
2018-06-23T18:41:25.396Z,11.07
2018-06-23T18:43:53.557Z,10.73
2018-06-23T18:46:21.629Z,8.93
2018-06-23T18:48:49.913Z,9.30
2018-06-23T18:51:18.416Z,11.03
2018-06-23T18:53:46.471Z,13.20
2018-06-23T18:56:14.633Z,10.40
2018-06-23T18:58:43.618Z,12.37
2018-06-23T19:01:11.730Z,8.73
2018-06-23T19:03:40.251Z,12.10
2018-06-23T19:06:09.318Z,9.97
2018-06-23T19:08:37.406Z,10.33
2018-06-23T19:11:05.515Z,8.20
2018-06-23T19:13:33.678Z,10.63
2018-06-23T19:16:01.863Z,9.20
2018-06-23T19:18:30.135Z,6.10
2018-06-23T19:20:58.414Z,10.60
2018-06-23T19:23:26.554Z,9.67
2018-06-23T19:25:54.659Z,8.13
2018-06-23T19:28:22.908Z,9.23
2018-06-23T19:30:51.732Z,9.70
2018-06-23T19:33:20.037Z,10.10
2018-06-23T19:35:48.125Z,9.77
2018-06-23T19:38:16.236Z,11.70
2018-06-23T19:40:45.374Z,9.17
2018-06-23T19:43:13.670Z,8.40
2018-06-23T19:45:41.771Z,8.27
2018-06-23T19:48:09.993Z,5.60
2018-06-23T19:50:38.068Z,7.03
2018-06-23T19:53:06.221Z,10.73
2018-06-23T19:55:34.255Z,12.37
2018-06-23T19:58:03.552Z,14.53
2018-06-23T20:00:31.911Z,10.07
2018-06-23T20:03:05.876Z,13.33
2018-06-23T20:05:34.138Z,11.60
2018-06-23T20:08:02.589Z,9.90
2018-06-23T20:10:30.664Z,14.60
2018-06-23T20:12:58.686Z,10.97
2018-06-23T20:15:26.624Z,9.67
2018-06-23T20:17:55.260Z,9.60
2018-06-23T20:20:23.713Z,10.97
2018-06-23T20:22:51.817Z,10.13
2018-06-23T20:25:20.778Z,11.60
2018-06-23T20:27:48.896Z,11.90
2018-06-23T20:30:17.108Z,10.63
2018-06-23T20:32:45.152Z,14.10
2018-06-23T20:35:13.406Z,11.13
2018-06-23T20:37:41.472Z,12.13
2018-06-23T20:40:10.465Z,10.20
2018-06-23T20:42:38.465Z,12.37
2018-06-23T20:45:06.610Z,8.33
2018-06-23T20:47:34.819Z,10.90
2018-06-23T20:50:03.097Z,11.30
2018-06-23T20:52:31.153Z,17.47
2018-06-23T20:54:59.421Z,14.93
2018-06-23T20:57:27.605Z,12.70
2018-06-23T20:59:55.784Z,10.43
2018-06-23T21:02:23.814Z,12.93
2018-06-23T21:04:51.689Z,11.50
2018-06-23T21:07:19.853Z,12.43
2018-06-23T21:09:48.040Z,12.37
2018-06-23T21:12:16.270Z,17.37
2018-06-23T21:14:44.269Z,12.43
2018-06-23T21:17:12.839Z,15.03
2018-06-23T21:19:40.872Z,11.70
2018-06-23T21:22:08.896Z,14.53
2018-06-23T21:24:36.914Z,13.80
2018-06-23T21:27:05.000Z,13.13
2018-06-23T21:29:33.140Z,15.87
2018-06-23T21:32:01.271Z,13.93
2018-06-23T21:34:29.440Z,11.93
2018-06-23T21:36:57.645Z,13.83
2018-06-23T21:39:25.843Z,12.07
2018-06-23T21:41:54.773Z,10.37
2018-06-23T21:44:24.578Z,22.50
2018-06-23T21:46:52.791Z,13.13
2018-06-23T21:49:21.762Z,11.10
2018-06-23T21:51:49.765Z,9.33
2018-06-23T21:54:18.254Z,9.90
2018-06-23T21:56:46.248Z,14.40
2018-06-23T21:59:14.226Z,10.30
2018-06-23T22:01:42.540Z,11.60
2018-06-23T22:04:10.904Z,15.97
2018-06-23T22:06:38.786Z,11.13
2018-06-23T22:09:08.820Z,13.60
2018-06-23T22:11:36.869Z,11.23
2018-06-23T22:14:04.894Z,11.63
2018-06-23T22:16:32.806Z,14.63
2018-06-23T22:19:00.654Z,11.40
2018-06-23T22:21:28.642Z,12.33
2018-06-23T22:23:56.520Z,11.17
2018-06-23T22:26:24.491Z,15.13
2018-06-23T22:28:57.166Z,10.03
2018-06-23T22:31:25.439Z,12.07
2018-06-23T22:33:53.484Z,12.10
2018-06-23T22:36:21.378Z,13.83
2018-06-23T22:38:50.003Z,10.50
2018-06-23T22:41:17.956Z,10.37
2018-06-23T22:43:45.849Z,10.50
2018-06-23T22:46:13.751Z,11.53
2018-06-23T22:48:41.707Z,9.17
2018-06-23T22:51:10.018Z,10.30
2018-06-23T22:53:37.924Z,9.33
2018-06-23T22:56:06.051Z,10.67
2018-06-23T22:58:33.986Z,13.17
2018-06-23T23:01:02.047Z,11.20
2018-06-23T23:03:29.916Z,13.60
2018-06-23T23:05:57.733Z,10.27
2018-06-23T23:08:30.206Z,12.93
2018-06-23T23:10:58.490Z,9.73
2018-06-23T23:13:26.486Z,12.37
2018-06-23T23:15:54.361Z,9.80
2018-06-23T23:18:24.369Z,7.30
2018-06-23T23:20:52.280Z,12.77
2018-06-23T23:23:20.506Z,11.13
2018-06-23T23:25:48.530Z,11.60
2018-06-23T23:28:16.817Z,9.10
2018-06-23T23:30:44.737Z,15.10
2018-06-23T23:33:12.756Z,11.63
2018-06-23T23:35:40.734Z,11.33
2018-06-23T23:38:08.755Z,12.07
2018-06-23T23:40:36.731Z,13.83
2018-06-23T23:43:04.738Z,10.63
2018-06-23T23:45:32.798Z,8.20
2018-06-23T23:48:00.853Z,11.30
2018-06-23T23:50:28.791Z,11.30
2018-06-23T23:52:56.810Z,11.03
2018-06-23T23:55:24.525Z,8.13
2018-06-23T23:57:52.501Z,9.27
